createdAt,value
2023-04-11T00:00:29.109Z,10.80
2023-04-11T00:03:00.138Z,10.85
2023-04-11T00:05:28.381Z,10.87
2023-04-11T00:07:54.744Z,10.97
2023-04-11T00:10:21.158Z,11.07
2023-04-11T00:12:47.551Z,11.03
2023-04-11T00:15:16.137Z,11.05
2023-04-11T00:17:45.623Z,11.04
2023-04-11T00:20:12.984Z,11.06
2023-04-11T00:22:39.451Z,11.00
2023-04-11T00:25:06.966Z,10.98
2023-04-11T00:27:33.345Z,10.93
2023-04-11T00:30:00.010Z,10.97
2023-04-11T00:32:26.795Z,11.08
2023-04-11T00:34:53.620Z,11.11
2023-04-11T00:37:22.774Z,11.06
2023-04-11T00:39:50.708Z,11.02
2023-04-11T00:42:17.162Z,11.08
2023-04-11T00:44:45.042Z,10.85
2023-04-11T00:47:12.091Z,10.69
2023-04-11T00:49:39.770Z,10.56
2023-04-11T00:52:08.109Z,10.55
2023-04-11T00:54:35.143Z,10.65
2023-04-11T00:57:04.031Z,10.65
2023-04-11T00:59:31.868Z,10.64
2023-04-11T01:01:58.890Z,10.68
2023-04-11T01:04:32.833Z,10.72
2023-04-11T01:07:05.852Z,10.84
2023-04-11T01:09:34.604Z,10.85
2023-04-11T01:12:02.790Z,10.88
2023-04-11T01:14:29.612Z,10.86
2023-04-11T01:16:57.236Z,10.91
2023-04-11T01:19:29.187Z,10.99
2023-04-11T01:21:57.562Z,10.88
2023-04-11T01:24:24.065Z,10.85
2023-04-11T01:26:50.566Z,10.82
2023-04-11T01:29:17.031Z,10.76
2023-04-11T01:31:44.852Z,10.73
2023-04-11T01:34:13.968Z,10.64
2023-04-11T01:36:42.238Z,10.58
2023-04-11T01:39:09.161Z,10.63
2023-04-11T01:41:36.378Z,10.70
2023-04-11T01:44:04.004Z,10.69
2023-04-11T01:46:30.903Z,10.69
2023-04-11T01:49:02.220Z,10.68
2023-04-11T01:51:28.787Z,10.73
2023-04-11T01:53:55.609Z,10.72
2023-04-11T01:56:22.049Z,10.76
2023-04-11T01:58:48.507Z,10.74
2023-04-11T02:01:18.320Z,10.74
2023-04-11T02:03:45.090Z,10.75
2023-04-11T02:06:11.697Z,10.70
2023-04-11T02:08:38.094Z,10.68
2023-04-11T02:11:05.200Z,10.65
2023-04-11T02:13:31.581Z,10.39
2023-04-11T02:16:08.187Z,10.20
2023-04-11T02:18:36.330Z,10.15
2023-04-11T02:21:02.825Z,10.01
2023-04-11T02:23:29.209Z,9.99
2023-04-11T02:25:55.566Z,9.98
2023-04-11T02:28:22.478Z,9.94
2023-04-11T02:30:51.249Z,9.94
2023-04-11T02:33:19.412Z,9.98
2023-04-11T02:35:46.778Z,10.01
2023-04-11T02:38:13.363Z,10.03
2023-04-11T02:40:39.765Z,9.98
2023-04-11T02:43:06.794Z,10.01
2023-04-11T02:45:33.284Z,10.06
2023-04-11T02:48:00.938Z,10.14
2023-04-11T02:50:27.648Z,10.22
2023-04-11T02:52:54.879Z,10.28
2023-04-11T02:55:25.149Z,10.37
2023-04-11T02:57:51.879Z,10.42
2023-04-11T03:00:20.302Z,10.37
2023-04-11T03:03:08.123Z,10.28
2023-04-11T03:05:40.130Z,10.26
2023-04-11T03:08:08.896Z,10.20
2023-04-11T03:10:36.960Z,10.10
2023-04-11T03:13:04.260Z,9.94
2023-04-11T03:15:32.177Z,9.81
2023-04-11T03:18:03.267Z,9.72
2023-04-11T03:20:30.561Z,9.70
2023-04-11T03:22:56.948Z,9.79
2023-04-11T03:25:24.105Z,9.73
2023-04-11T03:27:51.654Z,9.70
2023-04-11T03:30:18.061Z,9.68
2023-04-11T03:32:47.038Z,9.72
2023-04-11T03:35:14.881Z,9.72
2023-04-11T03:37:45.416Z,9.83
2023-04-11T03:40:11.965Z,9.80
2023-04-11T03:42:42.187Z,9.69
2023-04-11T03:45:13.817Z,9.66
2023-04-11T03:47:40.917Z,9.60
2023-04-11T03:50:08.193Z,9.56
2023-04-11T03:52:40.943Z,9.44
2023-04-11T03:55:12.086Z,9.38
2023-04-11T03:57:38.664Z,9.38
2023-04-11T04:00:06.440Z,9.30
2023-04-11T04:02:41.790Z,9.18
2023-04-11T04:05:11.285Z,9.18
2023-04-11T04:07:43.616Z,9.20
2023-04-11T04:10:18.154Z,9.14
2023-04-11T04:12:49.263Z,9.13
2023-04-11T04:15:19.346Z,9.24
2023-04-11T04:17:48.050Z,9.20
2023-04-11T04:20:29.297Z,9.25
2023-04-11T04:23:00.025Z,9.26
2023-04-11T04:25:42.238Z,9.29
2023-04-11T04:28:09.830Z,9.36
2023-04-11T04:30:39.008Z,9.30
2023-04-11T04:33:12.177Z,9.20
2023-04-11T04:35:41.563Z,9.10
2023-04-11T04:38:08.715Z,9.08
2023-04-11T04:40:50.295Z,9.00
2023-04-11T04:43:22.720Z,9.01
2023-04-11T04:45:57.152Z,9.00
2023-04-11T04:48:29.154Z,9.02
2023-04-11T04:50:55.974Z,8.92
2023-04-11T04:53:22.463Z,8.89
2023-04-11T04:55:54.045Z,8.91
2023-04-11T04:58:21.030Z,8.92
2023-04-11T05:00:55.598Z,8.93
2023-04-11T05:03:25.376Z,8.96
2023-04-11T05:05:52.137Z,8.90
2023-04-11T05:08:20.908Z,8.85
2023-04-11T05:10:47.616Z,8.90
2023-04-11T05:13:14.348Z,9.04
2023-04-11T05:15:47.114Z,9.07
2023-04-11T05:18:13.856Z,9.10
2023-04-11T05:20:40.333Z,9.03
2023-04-11T05:23:07.611Z,8.89
2023-04-11T05:25:34.413Z,8.82
2023-04-11T05:28:03.019Z,8.82
2023-04-11T05:30:29.426Z,8.85
2023-04-11T05:32:56.157Z,8.93
2023-04-11T05:35:22.654Z,9.07
2023-04-11T05:37:52.196Z,9.15
2023-04-11T05:40:18.612Z,9.06
2023-04-11T05:42:45.720Z,8.91
2023-04-11T05:45:14.809Z,8.86
2023-04-11T05:47:42.420Z,8.71
2023-04-11T05:50:12.834Z,8.76
2023-04-11T05:52:39.166Z,8.89
2023-04-11T05:55:07.685Z,8.93
2023-04-11T05:57:34.093Z,8.89
2023-04-11T06:00:02.213Z,8.90
2023-04-11T06:02:39.858Z,8.95
2023-04-11T06:05:07.000Z,9.00
2023-04-11T06:07:33.651Z,9.07
2023-04-11T06:10:00.006Z,9.10
2023-04-11T06:12:26.389Z,9.28
2023-04-11T06:14:52.772Z,9.41
2023-04-11T06:17:19.116Z,9.41
2023-04-11T06:19:45.470Z,9.25
2023-04-11T06:22:11.803Z,9.34
2023-04-11T06:24:40.041Z,9.22
2023-04-11T06:27:09.987Z,9.21
2023-04-11T06:29:41.116Z,9.15
2023-04-11T06:32:07.956Z,9.00
2023-04-11T06:34:34.650Z,9.04
2023-04-11T06:37:01.001Z,8.94
2023-04-11T06:39:27.541Z,9.02
2023-04-11T06:41:53.983Z,9.14
2023-04-11T06:44:25.057Z,9.16
2023-04-11T06:46:51.650Z,9.22
2023-04-11T06:49:18.854Z,9.25
2023-04-11T06:51:51.758Z,9.30
2023-04-11T06:54:18.479Z,9.31
2023-04-11T06:56:44.875Z,9.22
2023-04-11T06:59:11.341Z,9.11
2023-04-11T07:01:39.453Z,9.19
2023-04-11T07:04:06.930Z,9.10
2023-04-11T07:06:36.824Z,9.00
2023-04-11T07:09:04.513Z,8.93
2023-04-11T07:11:31.638Z,8.94
2023-04-11T07:13:59.709Z,9.10
2023-04-11T07:16:26.924Z,9.35
2023-04-11T07:18:54.749Z,9.14
2023-04-11T07:21:21.244Z,9.00
2023-04-11T07:23:47.685Z,8.87
2023-04-11T07:26:14.612Z,8.67
2023-04-11T07:28:41.563Z,8.56
2023-04-11T07:31:09.584Z,8.35
2023-04-11T07:33:37.308Z,8.04
2023-04-11T07:36:04.677Z,7.74
2023-04-11T07:38:31.110Z,7.73
2023-04-11T07:40:59.395Z,7.71
2023-04-11T07:43:26.916Z,7.80
2023-04-11T07:45:54.639Z,7.79
2023-04-11T07:48:21.497Z,7.86
2023-04-11T07:50:47.930Z,7.96
2023-04-11T07:53:14.546Z,8.13
2023-04-11T07:55:41.190Z,8.31
2023-04-11T07:58:07.962Z,8.24
2023-04-11T08:00:34.873Z,8.30
2023-04-11T08:03:06.167Z,8.49
2023-04-11T08:05:34.337Z,8.57
2023-04-11T08:08:02.039Z,8.60
2023-04-11T08:10:28.404Z,8.52
2023-04-11T08:12:55.742Z,8.42
2023-04-11T08:15:22.157Z,8.44
2023-04-11T08:17:49.738Z,8.61
2023-04-11T08:20:17.241Z,8.53
2023-04-11T08:22:44.830Z,8.59
2023-04-11T08:25:12.873Z,8.73
2023-04-11T08:27:40.592Z,8.75
2023-04-11T08:30:10.969Z,8.58
2023-04-11T08:32:38.167Z,8.65
2023-04-11T08:35:05.351Z,8.57
2023-04-11T08:37:31.729Z,8.54
2023-04-11T08:39:58.092Z,8.59
2023-04-11T08:42:30.062Z,8.64
2023-04-11T08:45:05.039Z,8.60
2023-04-11T08:47:31.860Z,8.66
2023-04-11T08:49:58.289Z,8.87
2023-04-11T08:52:24.834Z,8.85
2023-04-11T08:54:56.127Z,8.70
2023-04-11T08:57:33.151Z,8.65
2023-04-11T09:00:08.499Z,8.58
2023-04-11T09:02:35.200Z,8.50
2023-04-11T09:05:03.954Z,8.51
2023-04-11T09:07:48.001Z,8.56
2023-04-11T09:10:23.141Z,8.63
2023-04-11T09:12:50.274Z,8.94
2023-04-11T09:15:22.561Z,9.15
2023-04-11T09:17:56.628Z,9.44
2023-04-11T09:20:31.504Z,9.59
2023-04-11T09:23:03.377Z,9.66
2023-04-11T09:25:43.142Z,9.48
2023-04-11T09:28:10.726Z,9.44
2023-04-11T09:30:37.271Z,9.19
2023-04-11T09:33:22.518Z,9.27
2023-04-11T09:35:50.817Z,9.48
2023-04-11T09:38:28.992Z,9.61
2023-04-11T09:40:56.358Z,9.60
2023-04-11T09:43:22.736Z,9.50
2023-04-11T09:45:54.574Z,9.50
2023-04-11T09:48:29.249Z,9.68
2023-04-11T09:51:04.776Z,10.06
2023-04-11T09:53:35.849Z,10.34
2023-04-11T09:56:09.721Z,10.60
2023-04-11T09:58:37.990Z,11.01
2023-04-11T10:01:08.032Z,11.32
2023-04-11T10:03:39.661Z,11.53
2023-04-11T10:06:12.687Z,11.45
2023-04-11T10:08:41.695Z,11.24
2023-04-11T10:11:09.544Z,10.88
2023-04-11T10:13:42.994Z,10.68
2023-04-11T10:16:21.193Z,10.48
2023-04-11T10:18:50.531Z,10.33
2023-04-11T10:21:29.204Z,10.18
2023-04-11T10:24:17.504Z,10.13
2023-04-11T10:26:55.043Z,10.07
2023-04-11T10:29:33.794Z,9.89
2023-04-11T10:32:15.557Z,9.57
2023-04-11T10:34:50.917Z,9.39
2023-04-11T10:37:18.634Z,9.46
2023-04-11T10:39:47.969Z,9.59
2023-04-11T10:42:35.321Z,10.45
2023-04-11T10:45:23.349Z,11.51
2023-04-11T10:47:58.558Z,11.20
2023-04-11T10:50:27.963Z,10.61
2023-04-11T10:53:09.443Z,10.28
2023-04-11T10:55:44.908Z,10.29
2023-04-11T10:58:22.033Z,10.90
2023-04-11T11:00:51.797Z,11.21
2023-04-11T11:03:23.264Z,11.16
2023-04-11T11:06:06.714Z,10.97
2023-04-11T11:08:43.141Z,10.87
2023-04-11T11:11:11.089Z,10.62
2023-04-11T11:13:53.379Z,10.94
2023-04-11T11:16:22.043Z,11.53
2023-04-11T11:18:53.439Z,12.89
2023-04-11T11:21:27.668Z,12.34
2023-04-11T11:24:02.848Z,12.02
2023-04-11T11:26:42.977Z,12.49
2023-04-11T11:29:10.188Z,12.78
2023-04-11T11:31:41.669Z,12.49
2023-04-11T11:34:23.029Z,12.12
2023-04-11T11:36:49.908Z,12.04
2023-04-11T11:39:16.441Z,11.99
2023-04-11T11:41:42.910Z,11.71
2023-04-11T11:44:21.338Z,11.34
2023-04-11T11:47:08.897Z,10.94
2023-04-11T11:49:54.669Z,10.76
2023-04-11T11:52:39.621Z,10.45
2023-04-11T11:55:11.273Z,10.40
2023-04-11T11:57:43.501Z,10.45
2023-04-11T12:00:10.811Z,10.28
2023-04-11T12:02:39.375Z,10.14
2023-04-11T12:05:07.125Z,9.95
2023-04-11T12:07:36.656Z,9.96
2023-04-11T12:10:08.568Z,10.33
2023-04-11T12:12:36.194Z,10.94
2023-04-11T12:15:12.745Z,11.08
2023-04-11T12:17:39.830Z,11.07
2023-04-11T12:20:07.977Z,11.62
2023-04-11T12:22:35.215Z,12.18
2023-04-11T12:25:14.912Z,13.09
2023-04-11T12:27:43.051Z,12.62
2023-04-11T12:30:16.101Z,12.28
2023-04-11T12:32:43.448Z,12.42
2023-04-11T12:35:11.101Z,12.52
2023-04-11T12:37:37.827Z,12.08
2023-04-11T12:40:11.073Z,11.67
2023-04-11T12:42:48.994Z,11.37
2023-04-11T12:45:22.126Z,11.43
2023-04-11T12:47:48.505Z,11.28
2023-04-11T12:50:14.945Z,11.17
2023-04-11T12:52:41.719Z,11.07
2023-04-11T12:55:09.251Z,13.02
2023-04-11T12:57:36.508Z,15.93
2023-04-11T13:00:11.566Z,16.91
2023-04-11T13:02:42.853Z,17.86
2023-04-11T13:05:13.906Z,18.58
2023-04-11T13:07:41.035Z,17.61
2023-04-11T13:10:08.075Z,16.23
2023-04-11T13:12:39.576Z,15.48
2023-04-11T13:15:12.132Z,14.89
2023-04-11T13:17:38.884Z,14.22
2023-04-11T13:20:09.950Z,13.72
2023-04-11T13:22:37.510Z,13.94
2023-04-11T13:25:04.242Z,14.36
2023-04-11T13:27:30.588Z,13.85
2023-04-11T13:29:57.047Z,13.17
2023-04-11T13:32:23.438Z,12.52
2023-04-11T13:34:49.857Z,12.06
2023-04-11T13:37:16.222Z,11.73
2023-04-11T13:39:42.740Z,11.41
2023-04-11T13:42:10.628Z,11.17
2023-04-11T13:44:37.095Z,11.05
2023-04-11T13:47:03.646Z,10.97
2023-04-11T13:49:30.184Z,10.72
2023-04-11T13:51:56.598Z,10.76
2023-04-11T13:54:23.014Z,10.74
2023-04-11T13:56:49.384Z,10.65
2023-04-11T13:59:15.858Z,10.52
2023-04-11T14:01:42.306Z,10.41
2023-04-11T14:04:09.012Z,10.28
2023-04-11T14:06:37.468Z,10.05
2023-04-11T14:09:05.426Z,9.39
2023-04-11T14:11:32.077Z,8.93
2023-04-11T14:13:58.623Z,8.96
2023-04-11T14:16:28.158Z,9.09
2023-04-11T14:18:54.619Z,9.15
2023-04-11T14:21:22.474Z,9.27
2023-04-11T14:23:48.907Z,9.44
2023-04-11T14:26:15.425Z,9.53
2023-04-11T14:28:41.819Z,9.55
2023-04-11T14:31:08.851Z,9.58
2023-04-11T14:33:35.309Z,9.63
2023-04-11T14:36:01.663Z,9.52
2023-04-11T14:38:28.022Z,9.57
2023-04-11T14:40:54.488Z,9.60
2023-04-11T14:43:20.826Z,9.61
2023-04-11T14:45:47.663Z,9.55
2023-04-11T14:48:14.087Z,9.48
2023-04-11T14:50:40.628Z,9.47
2023-04-11T14:53:07.128Z,9.40
2023-04-11T14:55:33.559Z,9.43
2023-04-11T14:57:59.929Z,9.10
2023-04-11T15:00:26.642Z,9.01
2023-04-11T15:02:54.884Z,9.13
2023-04-11T15:05:23.035Z,9.41
2023-04-11T15:07:51.721Z,9.48
2023-04-11T15:10:22.295Z,9.59
2023-04-11T15:12:49.181Z,9.68
2023-04-11T15:15:16.224Z,9.71
2023-04-11T15:17:49.676Z,9.71
2023-04-11T15:20:16.771Z,9.57
2023-04-11T15:22:45.748Z,9.56
2023-04-11T15:25:14.233Z,9.58
2023-04-11T15:27:41.263Z,9.27
2023-04-11T15:30:08.639Z,9.10
2023-04-11T15:32:35.243Z,8.92
2023-04-11T15:35:02.090Z,8.72
2023-04-11T15:37:28.583Z,8.79
2023-04-11T15:39:55.404Z,8.97
2023-04-11T15:42:21.821Z,9.03
2023-04-11T15:44:48.199Z,9.09
2023-04-11T15:47:16.459Z,9.20
2023-04-11T15:49:42.985Z,9.18
2023-04-11T15:52:09.428Z,9.30
2023-04-11T15:54:36.114Z,9.55
2023-04-11T15:57:03.858Z,9.81
2023-04-11T15:59:30.660Z,9.78
2023-04-11T16:01:57.597Z,9.65
2023-04-11T16:04:25.311Z,9.56
2023-04-11T16:06:52.589Z,9.53
2023-04-11T16:09:21.101Z,9.52
2023-04-11T16:11:47.669Z,9.75
2023-04-11T16:14:14.107Z,9.64
2023-04-11T16:16:40.823Z,9.50
2023-04-11T16:19:07.470Z,9.56
2023-04-11T16:21:33.851Z,9.42
2023-04-11T16:24:00.185Z,9.35
2023-04-11T16:26:27.473Z,9.41
2023-04-11T16:28:53.847Z,9.50
2023-04-11T16:31:24.382Z,9.66
2023-04-11T16:33:52.346Z,9.79
2023-04-11T16:36:20.358Z,9.78
2023-04-11T16:38:47.594Z,9.78
2023-04-11T16:41:15.819Z,9.78
2023-04-11T16:43:42.316Z,9.74
2023-04-11T16:46:13.780Z,9.72
2023-04-11T16:48:42.315Z,9.70
2023-04-11T16:51:10.576Z,9.71
2023-04-11T16:53:37.980Z,9.72
2023-04-11T16:56:04.470Z,9.68
2023-04-11T16:58:31.279Z,9.71
2023-04-11T17:00:57.655Z,9.78
2023-04-11T17:03:24.127Z,9.82
2023-04-11T17:05:50.642Z,9.80
2023-04-11T17:08:17.554Z,9.77
2023-04-11T17:10:44.186Z,9.71
2023-04-11T17:13:11.769Z,9.65
2023-04-11T17:15:38.097Z,9.62
2023-04-11T17:18:04.539Z,9.63
2023-04-11T17:20:31.092Z,9.62
2023-04-11T17:22:57.457Z,9.66
2023-04-11T17:25:23.835Z,9.68
2023-04-11T17:27:50.357Z,9.62
2023-04-11T17:30:16.923Z,9.59
2023-04-11T17:32:43.393Z,9.43
2023-04-11T17:35:10.779Z,9.23
2023-04-11T17:37:37.158Z,9.05
2023-04-11T17:40:09.815Z,8.87
2023-04-11T17:42:36.217Z,8.81
2023-04-11T17:45:13.979Z,8.90
2023-04-11T17:47:42.844Z,8.87
2023-04-11T17:50:11.568Z,8.81
2023-04-11T17:52:41.566Z,8.77
2023-04-11T17:55:09.628Z,8.73
2023-04-11T17:57:36.267Z,8.65
2023-04-11T18:00:04.268Z,8.58
2023-04-11T18:02:32.666Z,8.56
2023-04-11T18:05:00.908Z,8.46
2023-04-11T18:07:28.818Z,8.43
2023-04-11T18:09:55.201Z,8.43
2023-04-11T18:12:21.773Z,8.44
2023-04-11T18:14:56.779Z,8.49
2023-04-11T18:17:23.216Z,8.49
2023-04-11T18:19:49.572Z,8.54
2023-04-11T18:22:15.964Z,8.53
2023-04-11T18:24:42.352Z,8.54
2023-04-11T18:27:09.625Z,8.60
2023-04-11T18:29:36.861Z,8.62
2023-04-11T18:32:03.328Z,8.62
2023-04-11T18:34:29.712Z,8.62
2023-04-11T18:36:56.096Z,8.60
2023-04-11T18:39:23.488Z,8.60
2023-04-11T18:41:50.422Z,8.60
2023-04-11T18:44:17.057Z,8.56
2023-04-11T18:46:43.504Z,8.53
2023-04-11T18:49:10.837Z,8.51
2023-04-11T18:51:38.141Z,8.48
2023-04-11T18:54:04.738Z,8.42
2023-04-11T18:56:31.183Z,8.29
2023-04-11T18:59:04.481Z,8.24
2023-04-11T19:01:34.497Z,8.26
2023-04-11T19:04:01.659Z,8.16
2023-04-11T19:06:28.229Z,8.14
2023-04-11T19:08:54.565Z,8.14
2023-04-11T19:11:21.538Z,8.20
2023-04-11T19:13:47.985Z,8.12
2023-04-11T19:16:14.534Z,8.16
2023-04-11T19:18:41.004Z,8.25
2023-04-11T19:21:07.479Z,8.26
2023-04-11T19:23:33.843Z,8.24
2023-04-11T19:26:00.603Z,8.19
2023-04-11T19:28:27.011Z,8.18
2023-04-11T19:30:53.369Z,8.21
2023-04-11T19:33:20.285Z,8.22
2023-04-11T19:35:46.682Z,8.23
2023-04-11T19:38:13.044Z,8.28
2023-04-11T19:40:39.489Z,8.19
2023-04-11T19:43:07.422Z,8.09
2023-04-11T19:45:34.423Z,8.04
2023-04-11T19:48:01.268Z,7.95
2023-04-11T19:50:27.808Z,7.86
2023-04-11T19:52:56.750Z,7.83
2023-04-11T19:55:23.304Z,7.85
2023-04-11T19:57:49.716Z,7.78
2023-04-11T20:00:17.018Z,7.73
2023-04-11T20:02:45.996Z,7.74
2023-04-11T20:05:17.805Z,7.69
2023-04-11T20:07:45.106Z,7.59
2023-04-11T20:10:12.668Z,7.56
2023-04-11T20:12:39.191Z,7.53
2023-04-11T20:15:06.100Z,7.54
2023-04-11T20:17:32.895Z,7.51
2023-04-11T20:19:59.304Z,7.47
2023-04-11T20:22:25.743Z,7.45
2023-04-11T20:24:52.096Z,7.46
2023-04-11T20:27:18.539Z,7.41
2023-04-11T20:29:45.909Z,7.39
2023-04-11T20:32:12.520Z,7.38
2023-04-11T20:34:38.970Z,7.36
2023-04-11T20:37:07.614Z,7.29
2023-04-11T20:39:34.104Z,7.28
2023-04-11T20:42:03.456Z,7.20
2023-04-11T20:44:29.875Z,7.19
2023-04-11T20:46:57.024Z,7.18
2023-04-11T20:49:28.064Z,7.20
2023-04-11T20:51:54.644Z,7.18
2023-04-11T20:54:21.812Z,7.15
2023-04-11T20:56:48.213Z,7.17
2023-04-11T20:59:14.584Z,7.22
2023-04-11T21:01:41.544Z,7.16
2023-04-11T21:04:09.617Z,7.13
2023-04-11T21:06:36.350Z,7.15
2023-04-11T21:09:04.141Z,7.09
2023-04-11T21:11:30.824Z,7.10
2023-04-11T21:13:57.306Z,7.04
2023-04-11T21:16:24.018Z,7.03
2023-04-11T21:18:50.548Z,7.06
2023-04-11T21:21:17.082Z,6.96
2023-04-11T21:23:43.605Z,6.94
2023-04-11T21:26:10.038Z,6.96
2023-04-11T21:28:36.497Z,6.98
2023-04-11T21:31:02.881Z,6.89
2023-04-11T21:33:29.238Z,6.91
2023-04-11T21:35:56.048Z,6.95
2023-04-11T21:38:22.622Z,6.90
2023-04-11T21:40:49.020Z,6.88
2023-04-11T21:43:15.378Z,6.83
2023-04-11T21:45:41.734Z,6.85
2023-04-11T21:48:08.175Z,6.90
2023-04-11T21:50:34.562Z,6.85
2023-04-11T21:53:01.578Z,6.89
2023-04-11T21:55:27.933Z,6.91
2023-04-11T21:57:55.487Z,6.85
2023-04-11T22:00:22.051Z,6.83
2023-04-11T22:02:48.678Z,6.85
2023-04-11T22:05:17.288Z,6.79
2023-04-11T22:07:47.807Z,6.77
2023-04-11T22:10:14.746Z,6.76
2023-04-11T22:12:41.804Z,6.76
2023-04-11T22:15:08.509Z,6.75
2023-04-11T22:17:37.033Z,6.78
2023-04-11T22:20:08.952Z,6.80
2023-04-11T22:22:35.402Z,6.79
2023-04-11T22:25:06.857Z,6.81
2023-04-11T22:27:37.757Z,6.76
2023-04-11T22:30:05.090Z,6.80
2023-04-11T22:32:33.194Z,6.82
2023-04-11T22:34:59.994Z,6.84
2023-04-11T22:37:26.448Z,6.80
2023-04-11T22:39:52.869Z,6.80
2023-04-11T22:42:19.263Z,6.76
2023-04-11T22:44:45.891Z,6.74
2023-04-11T22:47:15.952Z,6.76
2023-04-11T22:49:42.755Z,6.74
2023-04-11T22:52:13.953Z,6.70
2023-04-11T22:54:41.493Z,6.69
2023-04-11T22:57:07.857Z,6.68
2023-04-11T22:59:34.256Z,6.59
2023-04-11T23:02:04.127Z,6.60
2023-04-11T23:04:32.065Z,6.63
2023-04-11T23:06:58.939Z,6.63
2023-04-11T23:09:25.359Z,6.61
2023-04-11T23:11:52.110Z,6.57
2023-04-11T23:14:20.874Z,6.56
2023-04-11T23:16:47.383Z,6.59
2023-04-11T23:19:13.750Z,6.58
2023-04-11T23:21:44.521Z,6.58
2023-04-11T23:24:11.036Z,6.56
2023-04-11T23:26:37.713Z,6.56
2023-04-11T23:29:04.381Z,6.55
2023-04-11T23:31:34.136Z,6.53
2023-04-11T23:34:01.159Z,6.52
2023-04-11T23:36:28.022Z,6.53
2023-04-11T23:38:54.573Z,6.50
2023-04-11T23:41:20.933Z,6.48
2023-04-11T23:43:47.296Z,6.53
2023-04-11T23:46:13.734Z,6.55
2023-04-11T23:48:40.200Z,6.56
2023-04-11T23:51:07.260Z,6.55
2023-04-11T23:53:34.036Z,6.43
2023-04-11T23:56:00.481Z,6.38
2023-04-11T23:58:27.621Z,6.40
